Iqaluit, Canada
Current Conditions -  °F | °C
As of 11:00 PM on Saturday 25 Oct 2014 (Local Time) from CYFB Reporting Station
Clear Clear  
Wind Chill: -3°   Ceiling: Unl
Heat Index:   Visibility: 15mi
Dew Point: -6°   Wind: 6mph
Humidity: 56%   Direction: 50°NE
Pressure: 30.07"   Gusts: NA
Location:  63.75°N, 68.52°W
Report Text: CYFB 260300Z 05005KT 15SM SKC M14/M21 A3007 RMK SLP186
Loading
Personal Weather Stations






























Interactive Weather Map
Tropical Storm Tracking
New forecast layout! Learn more

10-Day Weather Forecast

Advertisements
Track Severe Weather on mobile